Main page
METAR-TAF:

METAR-TAF

Airports :

Thessaloniki International Airport Macedonia

Thessaloniki, Greece

latitude: 40-31N, longitude: 022-58E, elevation: 8 m

Current weather observation

The report was made 16 minutes ago, at 18:20 UTC
Wind 7 kt from the South/Southeast
Temperature 31°C
Humidity 52%
Pressure 1014 hPa
Visibility 10 km or more
no clouds below 1500 m and no cumulonimbus

METAR: LGTS 241820Z 15007KT CAVOK 31/20 Q1014 NOSIG

Time: 21:36 (18:36 UTC)

Forecast

The report was made 1 hour and 36 minutes ago, at 17:00 UTC
Forecast valid from 24 at 18 UTC to 25 at 18 UTC
Wind 3 kt from variable directions
Visibility 10 km or more
no clouds below 1500 m and no cumulonimbus
Becoming
from 25 at 12 UTC to 25 at 14 UTC
Visibility 10 km or more
Few clouds at a height of 2500 ft
Becoming
from 25 at 16 UTC to 25 at 18 UTC
Visibility 10 km or more
no clouds below 1500 m and no cumulonimbus

TAF: LGTS 241700Z 2418/2518 VRB03KT CAVOK BECMG 2512/2514 9999 FEW025 BECMG 2516/2518 CAVOK

Weather observations and forecasts of more than 4000 airports (METAR and TAF reports).

The available stations are represented by yellow and red dots on the map.

Hover mouse over dot to see the name of the station.

Then click to see weather observations and forecasts.

To change the map : click on the green buttons with a black cross to zoom in, on the green button with a dash to zoom out, or on the green arrows for adjacent maps.


METAR-TAF: